Time;durP1;ratioP1;P1;durP2;ratioP2;P2;SDS_P1;SDS_P2;PMS_P1;PMS_P2;Temp;Humidity;BMP_temperature;BMP_pressure;BME280_temperature;BME280_humidity;BME280_pressure;Samples;Min_cycle;Max_cycle;Signal;HPM_P1;HPM_P2
2024/01/04 01:08:58;;;;;;;11.70;11.30;;;8.20;99.90;;;;;;5025768;28;20220;-90
2024/01/04 01:11:44;;;;;;;11.87;11.47;;;8.10;99.90;;;;;;5026725;28;20224;-89
2024/01/04 01:14:24;;;;;;;11.97;11.57;;;8.00;99.90;;;;;;5027234;28;20236;-90
2024/01/04 01:17:02;;;;;;;12.07;11.67;;;8.00;99.90;;;;;;5026958;28;20228;-90
2024/01/04 01:19:39;;;;;;;12.27;11.87;;;7.90;99.90;;;;;;5027633;28;20217;-90
2024/01/04 01:22:32;;;;;;;12.20;11.80;;;7.80;99.90;;;;;;5034966;28;20211;-90
2024/01/04 01:25:12;;;;;;;12.00;11.60;;;7.90;99.90;;;;;;5151221;23;20273;-89
2024/01/04 02:34:27;;;;;;;;;;;;;;;;;;;;;
2024/01/04 02:37:19;;;;;;;11.43;11.03;;;7.90;99.90;;;;;;6120696;23;20193;-90
2024/01/04 02:47:22;;;;;;;12.00;11.60;;;7.80;99.90;;;;;;6007033;23;20183;-91
2024/01/04 02:50:20;;;;;;;11.90;11.50;;;7.80;99.90;;;;;;6004379;23;20217;-90
2024/01/04 02:53:11;;;;;;;11.77;11.37;;;7.80;99.90;;;;;;6118580;23;20213;-91
2024/01/04 02:56:26;;;;;;;11.80;11.40;;;7.70;99.90;;;;;;6115434;23;20209;-91
2024/01/04 02:58:58;;;;;;;11.93;11.53;;;7.70;99.90;;;;;;6112268;23;20289;-91
2024/01/04 03:01:48;;;;;;;11.97;11.57;;;7.60;99.90;;;;;;6112520;23;20213;-91
2024/01/04 03:07:11;;;;;;;12.10;11.70;;;7.50;99.90;;;;;;6122944;23;20198;-90
2024/01/04 03:09:42;;;;;;;11.90;11.50;;;7.50;99.90;;;;;;6114139;23;20232;-90
2024/01/04 03:12:19;;;;;;;11.70;11.30;;;7.50;99.90;;;;;;6115775;23;20205;-90
2024/01/04 03:17:38;;;;;;;11.80;11.40;;;7.40;99.90;;;;;;6091948;23;20205;-90
2024/01/04 03:20:16;;;;;;;11.90;11.50;;;7.40;99.90;;;;;;6083495;23;20205;-90
2024/01/04 03:22:44;;;;;;;11.80;11.40;;;7.40;99.90;;;;;;6083081;23;20202;-91
2024/01/04 03:28:12;;;;;;;11.63;11.23;;;7.40;99.90;;;;;;6082994;23;20190;-91
2024/01/04 03:30:46;;;;;;;11.87;11.47;;;7.40;99.90;;;;;;6085718;23;20203;-91
2024/01/04 03:33:27;;;;;;;11.60;11.20;;;7.40;99.90;;;;;;6083586;23;20233;-91
2024/01/04 03:36:04;;;;;;;12.00;11.60;;;7.40;99.90;;;;;;6083363;23;20230;-91
2024/01/04 03:39:00;;;;;;;;;;;;;;;;;;;;;
2024/01/04 03:50:09;;;;;;;11.87;11.47;;;7.40;99.90;;;;;;6095992;23;20246;-91
2024/01/04 03:52:38;;;;;;;11.77;11.37;;;7.40;99.90;;;;;;6097190;23;20182;-91
2024/01/04 03:55:24;;;;;;;11.80;11.40;;;7.40;99.90;;;;;;6097632;23;20179;-90
2024/01/04 04:19:09;;;;;;;11.70;11.30;;;7.60;99.90;;;;;;6160599;23;20188;-91
2024/01/04 04:32:01;;;;;;;11.87;11.47;;;7.60;99.90;;;;;;6054566;23;20199;-90
2024/01/04 04:34:39;;;;;;;11.70;11.30;;;7.60;99.90;;;;;;6058451;23;20198;-91
2024/01/04 04:37:35;;;;;;;11.50;11.10;;;7.60;99.90;;;;;;6060415;23;20293;-90
2024/01/04 04:47:46;;;;;;;11.47;11.07;;;7.60;99.90;;;;;;6213749;23;20261;-90
2024/01/04 04:51:25;;;;;;;11.63;11.23;;;7.60;99.90;;;;;;6183220;23;20290;-90
2024/01/04 04:54:25;;;;;;;11.67;11.27;;;7.60;99.90;;;;;;6057034;23;20201;-91
2024/01/04 05:07:34;;;;;;;11.80;11.40;;;7.60;99.90;;;;;;6058715;23;20248;-89
2024/01/04 05:14:11;;;;;;;;;;;;;;;;;;;;;
2024/01/04 05:20:37;;;;;;;12.10;11.70;;;7.40;99.90;;;;;;6035791;23;20195;-91
2024/01/04 05:26:55;;;;;;;11.87;11.47;;;7.40;99.90;;;;;;6086107;23;20206;-91
2024/01/04 05:30:00;;;;;;;12.13;11.73;;;7.40;99.90;;;;;;6082869;23;20198;-92
2024/01/04 05:32:29;;;;;;;12.10;11.70;;;7.30;99.90;;;;;;6090168;23;20205;-82
2024/01/04 05:34:56;;;;;;;11.90;11.50;;;7.30;99.90;;;;;;6121929;23;20201;-83
2024/01/04 05:37:23;;;;;;;11.90;11.50;;;7.30;99.90;;;;;;6121556;23;20198;-81
2024/01/04 05:39:53;;;;;;;11.53;11.13;;;7.30;99.90;;;;;;6117874;23;20220;-82
2024/01/04 05:42:22;;;;;;;11.67;11.27;;;7.40;99.90;;;;;;6115262;23;20194;-82
2024/01/04 05:44:52;;;;;;;12.00;11.60;;;7.40;99.90;;;;;;6112370;23;20213;-82
2024/01/04 05:47:19;;;;;;;11.97;11.57;;;7.40;99.90;;;;;;6113532;23;20205;-81
2024/01/04 05:49:47;;;;;;;11.83;11.43;;;7.40;99.90;;;;;;6115320;23;20261;-81
2024/01/04 05:52:14;;;;;;;11.90;11.50;;;7.40;99.90;;;;;;6115473;23;20240;-81
2024/01/04 05:54:41;;;;;;;11.70;11.30;;;7.40;99.90;;;;;;6112196;23;20260;-81
2024/01/04 05:57:09;;;;;;;11.77;11.37;;;7.40;99.90;;;;;;6113494;23;20235;-83
2024/01/04 06:00:11;;;;;;;11.80;11.40;;;7.50;99.90;;;;;;6113474;23;20210;-81
2024/01/04 06:02:38;;;;;;;11.73;11.33;;;7.50;99.90;;;;;;6101765;23;20228;-81
2024/01/04 06:05:07;;;;;;;11.50;11.10;;;7.50;99.90;;;;;;6112878;23;20205;-81
2024/01/04 06:07:35;;;;;;;11.47;11.07;;;7.50;99.90;;;;;;6112473;23;20287;-83
2024/01/04 06:10:04;;;;;;;11.80;11.40;;;7.50;99.90;;;;;;6113006;23;20233;-81
2024/01/04 06:12:33;;;;;;;11.50;11.10;;;7.60;99.90;;;;;;6111810;23;20233;-81
2024/01/04 06:15:03;;;;;;;12.10;11.70;;;7.60;99.90;;;;;;6112646;23;20209;-81
2024/01/04 06:17:30;;;;;;;11.90;11.50;;;7.60;99.90;;;;;;6111980;23;20233;-82
2024/01/04 06:20:04;;;;;;;11.50;11.10;;;7.60;99.90;;;;;;6114095;23;20204;-82
2024/01/04 06:22:32;;;;;;;11.60;11.20;;;7.60;99.90;;;;;;6116128;23;20236;-82
2024/01/04 06:25:06;;;;;;;11.60;11.20;;;7.60;99.90;;;;;;6119784;23;20205;-81
2024/01/04 06:28:36;;;;;;;11.70;11.30;;;7.70;99.90;;;;;;6119706;23;20197;-84
2024/01/04 06:31:53;;;;;;;11.40;11.00;;;7.60;99.90;;;;;;6118256;23;20265;-85
2024/01/04 06:35:04;;;;;;;11.70;11.30;;;7.70;99.90;;;;;;6115680;23;20221;-84
2024/01/04 06:37:48;;;;;;;12.00;11.60;;;7.70;99.90;;;;;;6113924;23;20210;-85
2024/01/04 06:44:14;;;;;;;;;;;;;;;;;;;;;
2024/01/04 06:50:22;;;;;;;11.70;11.30;;;7.70;99.90;;;;;;6031365;23;20208;-81
2024/01/04 06:52:54;;;;;;;11.60;11.20;;;7.80;99.90;;;;;;6110700;23;20202;-81
2024/01/04 06:58:52;;;;;;;11.50;11.10;;;7.70;99.90;;;;;;6087617;23;20208;-83
2024/01/04 07:01:50;;;;;;;11.60;11.20;;;7.80;99.90;;;;;;6111277;23;20201;-84
2024/01/04 07:04:28;;;;;;;12.00;11.60;;;7.80;99.90;;;;;;6108172;23;20242;-83
2024/01/04 07:06:59;;;;;;;12.00;11.60;;;7.70;99.90;;;;;;6108721;23;20190;-84
2024/01/04 07:10:22;;;;;;;12.10;11.70;;;7.70;99.90;;;;;;6107416;23;20248;-86
2024/01/04 07:13:26;;;;;;;11.80;11.40;;;7.70;99.90;;;;;;6112438;23;20266;-82
2024/01/04 07:15:59;;;;;;;11.70;11.30;;;7.70;99.90;;;;;;6111581;23;20201;-83
2024/01/04 07:18:29;;;;;;;12.07;11.67;;;7.60;99.90;;;;;;6109551;23;20193;-82
2024/01/04 07:21:10;;;;;;;11.73;11.33;;;7.60;99.90;;;;;;6110006;23;20217;-84
2024/01/04 07:23:41;;;;;;;11.73;11.33;;;7.60;99.90;;;;;;6111110;23;20209;-82
2024/01/04 07:26:21;;;;;;;11.87;11.47;;;7.60;99.90;;;;;;6114443;23;20209;-83
2024/01/04 07:28:57;;;;;;;11.87;11.47;;;7.60;99.90;;;;;;6110293;23;20198;-82
2024/01/04 07:31:25;;;;;;;12.20;11.80;;;7.60;99.90;;;;;;6110373;23;20209;-82
2024/01/04 07:33:52;;;;;;;11.93;11.53;;;7.70;99.90;;;;;;6109960;23;20210;-81
2024/01/04 07:36:32;;;;;;;11.80;11.40;;;7.70;99.90;;;;;;6118408;22;20190;-81
2024/01/04 07:39:00;;;;;;;11.90;11.50;;;7.70;99.90;;;;;;6111690;23;20194;-81
2024/01/04 07:41:32;;;;;;;11.80;11.40;;;7.70;99.90;;;;;;6109117;23;20201;-82
2024/01/04 07:44:00;;;;;;;12.00;11.60;;;7.70;99.90;;;;;;6109405;23;20212;-81
2024/01/04 07:46:27;;;;;;;11.50;11.10;;;7.70;99.90;;;;;;6107900;23;20209;-81
2024/01/04 07:48:55;;;;;;;11.57;11.17;;;7.70;99.90;;;;;;6107433;23;20275;-81
2024/01/04 07:51:23;;;;;;;11.33;10.93;;;7.70;99.90;;;;;;6107417;23;20205;-78
2024/01/04 07:53:51;;;;;;;11.57;11.17;;;7.70;99.90;;;;;;6108413;23;20253;-83
2024/01/04 08:01:12;;;;;;;;;;;;;;;;;;;;;
2024/01/04 08:03:40;;;;;;;11.20;10.80;;;7.90;99.90;;;;;;6079668;23;20202;-80
2024/01/04 08:06:07;;;;;;;11.20;10.80;;;7.90;99.90;;;;;;6081360;23;20249;-82
2024/01/04 08:08:38;;;;;;;11.40;11.00;;;7.90;99.90;;;;;;6081266;23;20209;-81
2024/01/04 08:11:06;;;;;;;10.90;10.57;;;7.90;99.90;;;;;;6081188;23;20263;-82
2024/01/04 08:13:38;;;;;;;10.80;10.50;;;7.80;99.90;;;;;;6081906;23;20218;-83
2024/01/04 08:16:06;;;;;;;10.60;10.30;;;7.90;99.90;;;;;;6081086;23;20195;-82
2024/01/04 08:18:50;;;;;;;10.63;10.33;;;7.80;99.90;;;;;;6087413;23;20230;-83
2024/01/04 08:21:18;;;;;;;10.53;10.23;;;7.80;99.90;;;;;;6081390;23;20314;-82
2024/01/04 08:23:51;;;;;;;10.40;10.10;;;7.80;99.90;;;;;;6079403;23;20202;-83
2024/01/04 08:26:18;;;;;;;10.10;9.80;;;7.90;99.90;;;;;;6079277;23;20210;-83
2024/01/04 08:28:49;;;;;;;10.30;10.00;;;7.80;99.90;;;;;;6079140;23;20249;-84
2024/01/04 08:31:16;;;;;;;10.33;10.03;;;7.90;99.90;;;;;;6079862;23;20198;-85
2024/01/04 08:33:47;;;;;;;10.50;10.20;;;7.80;99.90;;;;;;6078728;23;20213;-87
2024/01/04 08:36:28;;;;;;;10.70;10.40;;;7.90;99.90;;;;;;6094583;23;20188;-83
2024/01/04 08:38:59;;;;;;;10.30;10.00;;;7.90;99.90;;;;;;6096529;23;20178;-83
2024/01/04 08:41:29;;;;;;;10.23;9.93;;;7.90;99.90;;;;;;6096444;23;20211;-82
2024/01/04 08:43:57;;;;;;;10.10;9.80;;;7.90;99.90;;;;;;6096394;23;20179;-82
2024/01/04 08:46:29;;;;;;;10.00;9.70;;;7.90;99.90;;;;;;6096776;23;20279;-83
2024/01/04 08:49:04;;;;;;;10.13;9.83;;;7.90;99.90;;;;;;6095502;23;20182;-81
2024/01/04 08:51:31;;;;;;;9.90;9.60;;;7.90;99.90;;;;;;6097626;23;20194;-84
2024/01/04 08:54:00;;;;;;;9.73;9.43;;;7.90;99.90;;;;;;6096777;23;20200;-81
2024/01/04 08:56:27;;;;;;;10.13;9.83;;;8.00;99.90;;;;;;6097088;23;20249;-80
2024/01/04 08:58:55;;;;;;;10.17;9.87;;;7.90;99.90;;;;;;6096458;23;20189;-82
2024/01/04 09:01:22;;;;;;;10.37;10.07;;;7.90;99.90;;;;;;6097160;23;20192;-83
2024/01/04 09:03:50;;;;;;;10.10;9.80;;;7.90;99.90;;;;;;6096893;23;20210;-81
2024/01/04 09:06:17;;;;;;;10.10;9.80;;;7.90;99.90;;;;;;6097557;23;20198;-81
2024/01/04 09:08:45;;;;;;;10.40;10.10;;;7.90;99.90;;;;;;6097326;23;20170;-81
2024/01/04 09:11:14;;;;;;;10.70;10.40;;;7.90;99.90;;;;;;6097571;23;20202;-81
2024/01/04 09:13:44;;;;;;;10.50;10.20;;;7.90;99.90;;;;;;6096971;23;20737;-82
2024/01/04 09:16:11;;;;;;;10.80;10.50;;;7.90;99.90;;;;;;6097229;23;20234;-82
2024/01/04 09:18:39;;;;;;;11.10;10.70;;;7.80;99.90;;;;;;6097043;23;20225;-82
2024/01/04 09:21:10;;;;;;;11.27;10.87;;;7.80;99.90;;;;;;6097316;23;20194;-83
2024/01/04 09:23:37;;;;;;;11.23;10.83;;;7.70;99.90;;;;;;6097255;23;20255;-84
2024/01/04 09:26:08;;;;;;;11.27;10.87;;;7.70;99.90;;;;;;6080696;23;20289;-84
2024/01/04 09:28:39;;;;;;;11.50;11.10;;;7.60;99.90;;;;;;6076959;23;20662;-85
2024/01/04 09:31:10;;;;;;;11.80;11.40;;;7.60;99.90;;;;;;6076660;23;20190;-84
2024/01/04 09:33:37;;;;;;;11.30;10.90;;;7.60;99.90;;;;;;6076379;23;20674;-85
2024/01/04 09:36:06;;;;;;;11.67;11.27;;;7.60;99.90;;;;;;6079151;23;20193;-83
2024/01/04 09:38:36;;;;;;;11.80;11.40;;;7.60;99.90;;;;;;6079202;23;20205;-85
2024/01/04 09:41:35;;;;;;;11.80;11.40;;;7.50;99.90;;;;;;6076624;23;20222;-86
2024/01/04 09:44:16;;;;;;;11.37;10.97;;;7.50;99.90;;;;;;6076109;23;20269;-86
2024/01/04 09:49:38;;;;;;;11.20;10.80;;;7.50;99.90;;;;;;6084416;23;20252;-85
2024/01/04 09:52:09;;;;;;;11.27;10.87;;;7.40;99.90;;;;;;6074823;23;20292;-85
2024/01/04 09:54:40;;;;;;;11.50;11.10;;;7.40;99.90;;;;;;6076954;23;20194;-84
2024/01/04 09:57:12;;;;;;;11.40;11.00;;;7.30;99.90;;;;;;6078254;23;20218;-85
2024/01/04 09:59:42;;;;;;;11.40;11.00;;;7.30;99.90;;;;;;6078190;23;20225;-84
2024/01/04 10:02:13;;;;;;;11.40;11.00;;;7.30;99.90;;;;;;6076236;23;20202;-85
2024/01/04 10:04:47;;;;;;;11.20;10.80;;;7.30;99.90;;;;;;6084138;23;20218;-81
2024/01/04 10:07:22;;;;;;;11.20;10.80;;;7.30;99.90;;;;;;6080447;23;20211;-83
2024/01/04 10:10:00;;;;;;;11.37;10.97;;;7.30;99.90;;;;;;6076617;23;20229;-85
2024/01/04 10:12:32;;;;;;;11.60;11.20;;;7.20;99.90;;;;;;6078848;23;20198;-85
2024/01/04 10:15:02;;;;;;;11.40;11.00;;;7.20;99.90;;;;;;6077100;23;20256;-84
2024/01/04 10:17:30;;;;;;;11.70;11.30;;;7.10;99.90;;;;;;6077214;23;20229;-85
2024/01/04 10:19:58;;;;;;;11.80;11.40;;;7.10;99.90;;;;;;6076362;23;20274;-84
2024/01/04 10:22:25;;;;;;;11.57;11.17;;;7.10;99.90;;;;;;6077230;23;20207;-84
2024/01/04 10:24:54;;;;;;;11.80;11.40;;;7.00;99.90;;;;;;6077561;23;20214;-83
2024/01/04 10:27:23;;;;;;;11.80;11.40;;;7.00;99.90;;;;;;6078108;23;20206;-86
2024/01/04 10:29:51;;;;;;;11.60;11.20;;;7.00;99.90;;;;;;6079845;23;20258;-84
2024/01/04 10:32:20;;;;;;;11.83;11.43;;;7.00;99.90;;;;;;6079199;23;20266;-83
2024/01/04 10:34:48;;;;;;;11.70;11.30;;;7.00;99.90;;;;;;6079912;23;20206;-82
2024/01/04 10:40:23;;;;;;;11.30;10.90;;;7.00;99.90;;;;;;6086955;23;20210;-82
2024/01/04 10:43:01;;;;;;;11.30;10.90;;;7.00;99.90;;;;;;6080909;23;20233;-83
2024/01/04 10:45:30;;;;;;;11.33;10.93;;;7.00;99.90;;;;;;6081064;23;20209;-82
2024/01/04 10:48:08;;;;;;;11.70;11.30;;;7.00;99.90;;;;;;6079985;23;20263;-82
2024/01/04 10:50:37;;;;;;;11.40;11.00;;;6.90;99.90;;;;;;6081557;23;20197;-82
2024/01/04 10:53:17;;;;;;;11.57;11.17;;;6.90;99.90;;;;;;6080911;23;20198;-82
2024/01/04 10:56:12;;;;;;;11.47;11.07;;;6.90;99.90;;;;;;6081537;23;20285;-83
2024/01/04 10:58:49;;;;;;;11.30;10.90;;;7.00;99.90;;;;;;6081800;23;20206;-82
2024/01/04 11:01:37;;;;;;;11.70;11.30;;;6.90;99.90;;;;;;6082456;23;20284;-82
2024/01/04 11:04:11;;;;;;;11.57;11.17;;;6.90;99.90;;;;;;6092760;23;20214;-83
2024/01/04 11:06:48;;;;;;;11.23;10.83;;;6.90;99.90;;;;;;6093442;23;20276;-82
2024/01/04 11:09:20;;;;;;;11.60;11.20;;;6.90;99.90;;;;;;6090321;23;20253;-82
2024/01/04 11:11:52;;;;;;;11.13;10.73;;;6.90;99.90;;;;;;6088712;23;20198;-82
2024/01/04 11:14:45;;;;;;;11.60;11.20;;;7.00;99.90;;;;;;6083364;23;20212;-83
2024/01/04 11:17:49;;;;;;;11.70;11.30;;;6.90;99.90;;;;;;6081168;23;20182;-82
2024/01/04 11:20:40;;;;;;;11.37;10.97;;;7.00;99.90;;;;;;6080137;23;20199;-82
2024/01/04 11:23:49;;;;;;;11.60;11.20;;;7.00;99.90;;;;;;6079331;23;20229;-82
2024/01/04 11:26:35;;;;;;;11.50;11.10;;;7.00;99.90;;;;;;6079899;23;20198;-81
2024/01/04 11:29:06;;;;;;;11.10;10.70;;;7.10;99.90;;;;;;6079002;23;20206;-82
2024/01/04 11:31:43;;;;;;;11.40;11.00;;;7.00;99.90;;;;;;6080550;23;20194;-81
2024/01/04 11:34:15;;;;;;;11.20;10.80;;;7.10;99.90;;;;;;6079886;23;20237;-88
2024/01/04 11:36:54;;;;;;;11.50;11.10;;;7.10;99.90;;;;;;6086655;23;20195;-88
2024/01/04 11:39:31;;;;;;;11.33;10.93;;;7.20;99.90;;;;;;6075260;23;20198;-87
2024/01/04 11:42:19;;;;;;;10.90;10.60;;;7.20;99.90;;;;;;6075272;23;20198;-88
2024/01/04 11:44:53;;;;;;;11.20;10.80;;;7.20;99.90;;;;;;6046568;23;20286;-88
2024/01/04 11:47:39;;;;;;;11.57;11.17;;;7.30;99.90;;;;;;6046040;23;20221;-86
2024/01/04 11:50:20;;;;;;;11.37;10.97;;;7.30;99.90;;;;;;6047143;23;20210;-88
2024/01/04 11:53:08;;;;;;;10.77;10.47;;;7.40;99.90;;;;;;6046589;23;20214;-87
2024/01/04 11:55:40;;;;;;;11.40;11.00;;;7.50;99.90;;;;;;6045665;23;20239;-88
2024/01/04 11:58:32;;;;;;;11.23;10.83;;;7.40;99.90;;;;;;6045928;23;20210;-87
2024/01/04 12:01:02;;;;;;;10.73;10.43;;;7.50;99.90;;;;;;6048302;23;20225;-87
2024/01/04 12:03:38;;;;;;;10.70;10.40;;;7.50;99.90;;;;;;6045866;23;20210;-88
2024/01/04 12:06:10;;;;;;;10.60;10.30;;;7.50;99.90;;;;;;6045697;23;20229;-86
2024/01/04 12:08:45;;;;;;;10.90;10.60;;;7.50;99.90;;;;;;6046215;23;20258;-86
2024/01/04 12:11:20;;;;;;;10.57;10.27;;;7.50;99.90;;;;;;6046424;23;20281;-87
2024/01/04 12:13:50;;;;;;;10.43;10.13;;;7.60;99.90;;;;;;6045892;23;20202;-87
2024/01/04 12:16:20;;;;;;;10.77;10.47;;;7.70;99.90;;;;;;6046556;23;20347;-87
2024/01/04 12:18:54;;;;;;;10.80;10.50;;;7.70;99.90;;;;;;6046137;23;20214;-86
2024/01/04 12:21:25;;;;;;;10.80;10.50;;;7.70;99.90;;;;;;6046976;23;20197;-89
2024/01/04 12:23:56;;;;;;;10.30;10.00;;;7.70;99.90;;;;;;6046189;23;20207;-86
2024/01/04 12:26:28;;;;;;;10.40;10.10;;;7.70;99.90;;;;;;6045621;23;20203;-88
2024/01/04 12:29:00;;;;;;;10.40;10.10;;;7.70;99.90;;;;;;6044845;23;20290;-87
2024/01/04 12:31:39;;;;;;;10.67;10.37;;;7.70;99.90;;;;;;6045286;23;20243;-87
2024/01/04 12:34:11;;;;;;;10.70;10.40;;;7.70;99.90;;;;;;6046184;23;20211;-87
2024/01/04 12:36:41;;;;;;;10.50;10.20;;;7.70;99.90;;;;;;6045653;23;20221;-88
2024/01/04 12:39:12;;;;;;;10.40;10.10;;;7.70;99.90;;;;;;6052092;23;20195;-87
2024/01/04 12:41:43;;;;;;;10.70;10.40;;;7.60;99.90;;;;;;6060986;23;20256;-87
2024/01/04 12:44:21;;;;;;;10.30;10.00;;;7.70;99.90;;;;;;6061981;23;20230;-87
2024/01/04 12:46:53;;;;;;;10.00;9.70;;;7.70;99.90;;;;;;6059777;23;20202;-87
2024/01/04 12:49:24;;;;;;;10.03;9.73;;;7.70;99.90;;;;;;6061069;23;20207;-87
2024/01/04 12:51:56;;;;;;;10.33;10.03;;;7.70;99.90;;;;;;6045333;23;20207;-88
2024/01/04 12:54:30;;;;;;;10.20;9.90;;;7.80;99.90;;;;;;6045138;23;20295;-88
2024/01/04 12:56:59;;;;;;;10.10;9.80;;;7.80;99.90;;;;;;6046016;23;20210;-87
2024/01/04 12:59:27;;;;;;;10.10;9.80;;;7.80;99.90;;;;;;6046010;23;20278;-87
2024/01/04 13:01:55;;;;;;;9.97;9.67;;;7.80;99.90;;;;;;6062034;23;20183;-89
2024/01/04 13:04:22;;;;;;;10.07;9.77;;;7.80;99.90;;;;;;6059023;23;20210;-88
2024/01/04 13:06:58;;;;;;;10.10;9.80;;;7.90;99.90;;;;;;6044683;23;20226;-87
2024/01/04 13:09:35;;;;;;;10.00;9.70;;;7.90;99.90;;;;;;6044150;23;20198;-88
2024/01/04 13:12:03;;;;;;;10.10;9.80;;;7.90;99.90;;;;;;6049853;23;20269;-88
2024/01/04 13:14:34;;;;;;;9.80;9.50;;;7.90;99.90;;;;;;6059842;23;20187;-87
2024/01/04 13:17:03;;;;;;;9.90;9.60;;;7.90;99.90;;;;;;6047417;23;20278;-87
2024/01/04 13:19:36;;;;;;;10.00;9.70;;;7.80;99.90;;;;;;6045705;23;20199;-88
2024/01/04 13:22:06;;;;;;;9.87;9.57;;;7.90;99.90;;;;;;6045426;23;20215;-88
2024/01/04 13:24:39;;;;;;;9.90;9.60;;;7.80;99.90;;;;;;6045569;23;20983;-87
2024/01/04 13:27:08;;;;;;;9.83;9.53;;;7.80;99.90;;;;;;6058742;23;20250;-89
2024/01/04 13:29:37;;;;;;;9.73;9.43;;;7.80;99.90;;;;;;6055539;23;20203;-87
2024/01/04 13:32:06;;;;;;;9.90;9.60;;;7.80;99.90;;;;;;6044511;23;20674;-88
2024/01/04 13:34:40;;;;;;;9.90;9.60;;;7.80;99.90;;;;;;6044814;23;20226;-87
2024/01/04 13:37:08;;;;;;;9.70;9.40;;;7.80;99.90;;;;;;6045000;23;20199;-88
2024/01/04 13:39:41;;;;;;;9.73;9.43;;;7.80;99.90;;;;;;6044167;23;20199;-88
2024/01/04 13:42:12;;;;;;;10.00;9.70;;;7.80;99.90;;;;;;6045682;23;20187;-87
2024/01/04 13:44:42;;;;;;;10.00;9.70;;;7.90;99.90;;;;;;6045108;23;20205;-87
2024/01/04 13:47:14;;;;;;;10.10;9.80;;;7.90;99.90;;;;;;6045320;23;20215;-87
2024/01/04 13:49:53;;;;;;;;;;;;;;;;;;;;;
2024/01/04 13:52:23;;;;;;;10.00;9.70;;;7.90;99.90;;;;;;6057476;23;20191;-87
2024/01/04 13:54:56;;;;;;;10.03;9.73;;;7.90;99.90;;;;;;6067002;23;20191;-88
2024/01/04 13:57:38;;;;;;;9.90;9.60;;;7.90;99.90;;;;;;6067095;23;20180;-87
2024/01/04 14:00:11;;;;;;;9.50;9.20;;;7.90;99.90;;;;;;6047778;23;20202;-87
2024/01/04 14:02:40;;;;;;;9.90;9.60;;;7.90;99.90;;;;;;6045851;23;20214;-87
2024/01/04 14:05:11;;;;;;;10.20;9.90;;;7.90;99.90;;;;;;6045251;23;20199;-87
2024/01/04 14:07:40;;;;;;;9.80;9.50;;;7.90;99.90;;;;;;6044264;23;20659;-87
2024/01/04 14:10:13;;;;;;;9.80;9.50;;;7.90;99.90;;;;;;6044418;23;20199;-87
2024/01/04 14:12:43;;;;;;;9.77;9.47;;;7.90;99.90;;;;;;6044268;23;20230;-87
2024/01/04 14:15:14;;;;;;;9.70;9.40;;;8.00;99.90;;;;;;6045287;23;20281;-87
2024/01/04 14:17:42;;;;;;;9.60;9.30;;;8.00;99.90;;;;;;6044040;23;20273;-87
2024/01/04 14:20:12;;;;;;;9.80;9.50;;;8.00;99.90;;;;;;6044038;23;20271;-87
2024/01/04 14:22:41;;;;;;;10.00;9.70;;;8.00;99.90;;;;;;6044308;23;20207;-87
2024/01/04 14:25:16;;;;;;;9.83;9.53;;;8.00;99.90;;;;;;6044323;23;20255;-87
2024/01/04 14:27:44;;;;;;;10.10;9.80;;;8.00;99.90;;;;;;6044614;23;20202;-87
2024/01/04 14:30:14;;;;;;;9.90;9.60;;;8.00;99.90;;;;;;6045060;23;20206;-86
2024/01/04 14:32:46;;;;;;;10.00;9.70;;;8.00;99.90;;;;;;6044562;23;20227;-87
2024/01/04 14:35:15;;;;;;;10.00;9.70;;;8.00;99.90;;;;;;6044514;23;20258;-87
2024/01/04 14:37:43;;;;;;;9.80;9.50;;;8.00;99.90;;;;;;6045296;23;20223;-87
2024/01/04 14:40:16;;;;;;;9.80;9.50;;;8.00;99.90;;;;;;6044888;23;20205;-87
2024/01/04 14:42:49;;;;;;;10.10;9.80;;;8.00;99.90;;;;;;6046246;23;20207;-87
2024/01/04 14:45:21;;;;;;;9.90;9.60;;;8.00;99.90;;;;;;6044923;23;20207;-87
2024/01/04 14:47:50;;;;;;;9.77;9.47;;;8.00;99.90;;;;;;6044608;23;20199;-87
2024/01/04 14:50:20;;;;;;;9.87;9.57;;;8.00;99.90;;;;;;6044121;23;20206;-88
2024/01/04 14:52:48;;;;;;;10.10;9.80;;;8.00;99.90;;;;;;6045510;23;20213;-88
2024/01/04 14:55:22;;;;;;;9.70;9.40;;;8.00;99.90;;;;;;6050836;23;20243;-88
2024/01/04 14:57:56;;;;;;;9.70;9.40;;;8.00;99.90;;;;;;6048431;23;20210;-89
2024/01/04 15:00:29;;;;;;;9.80;9.50;;;8.00;99.90;;;;;;6047715;23;20199;-87
2024/01/04 15:02:59;;;;;;;9.50;9.20;;;8.00;99.90;;;;;;6046917;23;20211;-87
2024/01/04 15:05:30;;;;;;;9.50;9.20;;;8.00;99.90;;;;;;6047457;23;20198;-88
2024/01/04 15:07:59;;;;;;;9.20;8.90;;;8.00;99.90;;;;;;6046857;23;20233;-88
2024/01/04 15:10:31;;;;;;;9.40;9.10;;;8.00;99.90;;;;;;6047161;23;20203;-88
2024/01/04 15:12:59;;;;;;;9.20;8.90;;;7.90;99.90;;;;;;6046823;23;20254;-88
2024/01/04 15:15:32;;;;;;;9.27;8.97;;;7.90;99.90;;;;;;6047183;23;20195;-88
2024/01/04 15:18:10;;;;;;;9.33;9.03;;;7.90;99.90;;;;;;6046775;23;20205;-89
2024/01/04 15:20:40;;;;;;;9.40;9.10;;;7.90;99.90;;;;;;6047912;23;20199;-87
2024/01/04 15:23:20;;;;;;;;;;;;;;;;;;;;;
2024/01/04 15:25:49;;;;;;;9.50;9.20;;;7.70;99.90;;;;;;6050101;23;20276;-87
2024/01/04 15:28:18;;;;;;;9.33;9.03;;;7.60;99.90;;;;;;6047805;23;20206;-88
2024/01/04 15:30:47;;;;;;;9.70;9.40;;;7.50;99.90;;;;;;6047395;23;20250;-87
2024/01/04 15:33:21;;;;;;;9.50;9.20;;;7.50;99.90;;;;;;6047076;23;20239;-87
2024/01/04 15:35:54;;;;;;;9.60;9.30;;;7.40;99.90;;;;;;6067379;23;20209;-89
2024/01/04 15:38:28;;;;;;;9.07;8.77;;;7.40;99.90;;;;;;6051469;23;20191;-88
2024/01/04 15:41:01;;;;;;;9.30;9.00;;;7.30;99.90;;;;;;6048865;23;20258;-87
2024/01/04 15:43:30;;;;;;;9.27;8.97;;;7.20;99.90;;;;;;6065999;23;20190;-88
2024/01/04 15:46:07;;;;;;;9.33;9.03;;;7.30;99.90;;;;;;6068488;23;20296;-89
2024/01/04 15:48:38;;;;;;;9.27;8.97;;;7.20;99.90;;;;;;6054916;23;20209;-88
2024/01/04 15:51:09;;;;;;;9.47;9.17;;;7.10;99.90;;;;;;6047222;23;20195;-88
2024/01/04 15:53:47;;;;;;;9.60;9.30;;;7.10;99.90;;;;;;6047324;23;20211;-88
2024/01/04 15:56:24;;;;;;;9.27;8.97;;;7.10;99.90;;;;;;6048047;23;20195;-88
2024/01/04 15:58:59;;;;;;;9.50;9.20;;;7.10;99.90;;;;;;6055276;23;20206;-89
2024/01/04 16:01:28;;;;;;;9.60;9.30;;;7.10;99.90;;;;;;6066903;23;20198;-87
2024/01/04 16:03:59;;;;;;;9.53;9.23;;;7.00;99.90;;;;;;6046661;23;20211;-88
2024/01/04 16:06:36;;;;;;;9.90;9.60;;;6.90;99.90;;;;;;6046868;23;20704;-88
2024/01/04 16:09:12;;;;;;;9.90;9.60;;;6.90;99.90;;;;;;6046215;23;20210;-87
2024/01/04 16:11:51;;;;;;;9.70;9.40;;;6.80;99.90;;;;;;6046127;23;20210;-87
2024/01/04 16:14:23;;;;;;;9.80;9.50;;;6.80;99.90;;;;;;6046704;23;20211;-88
2024/01/04 16:16:53;;;;;;;9.60;9.30;;;6.80;99.90;;;;;;6045916;23;20211;-88
2024/01/04 16:19:34;;;;;;;10.00;9.70;;;6.80;99.90;;;;;;6046843;23;20209;-87
2024/01/04 16:22:06;;;;;;;9.80;9.50;;;6.80;99.90;;;;;;6045614;23;20262;-88
2024/01/04 16:24:34;;;;;;;9.70;9.40;;;6.80;99.90;;;;;;6047039;23;20235;-88
2024/01/04 16:27:14;;;;;;;9.63;9.33;;;6.80;99.90;;;;;;6049797;23;20250;-88
2024/01/04 16:29:50;;;;;;;9.83;9.53;;;6.80;99.90;;;;;;6048745;23;20207;-87
2024/01/04 16:32:29;;;;;;;9.93;9.63;;;6.80;99.90;;;;;;6047149;23;20208;-87
2024/01/04 16:35:06;;;;;;;9.80;9.50;;;6.80;99.90;;;;;;6047741;23;20214;-88
2024/01/04 16:37:46;;;;;;;9.70;9.40;;;6.80;99.90;;;;;;6062836;23;20183;-89
2024/01/04 16:40:18;;;;;;;9.57;9.27;;;6.80;99.90;;;;;;6067040;23;20202;-88
2024/01/04 16:43:01;;;;;;;9.90;9.60;;;6.80;99.90;;;;;;6056182;23;20211;-88
2024/01/04 16:45:44;;;;;;;9.80;9.50;;;6.70;99.90;;;;;;6048141;23;20273;-88
2024/01/04 16:48:12;;;;;;;9.40;9.10;;;6.70;99.90;;;;;;6045987;23;20214;-88
2024/01/04 16:50:47;;;;;;;9.60;9.30;;;6.70;99.90;;;;;;6045087;23;20206;-89
2024/01/04 16:53:38;;;;;;;9.30;9.00;;;6.70;99.90;;;;;;6056950;23;20210;-88
2024/01/04 16:56:13;;;;;;;9.30;9.00;;;6.70;99.90;;;;;;6056860;23;20207;-87
2024/01/04 16:58:49;;;;;;;9.20;8.90;;;6.70;99.90;;;;;;6048551;23;20201;-86
2024/01/04 17:01:34;;;;;;;9.40;9.10;;;6.70;99.90;;;;;;6045267;23;20284;-88
2024/01/04 17:04:13;;;;;;;9.47;9.17;;;6.70;99.90;;;;;;6045121;23;20202;-88
2024/01/04 17:06:53;;;;;;;9.40;9.10;;;6.70;99.90;;;;;;6045739;23;20230;-88
2024/01/04 17:09:32;;;;;;;9.60;9.30;;;6.70;99.90;;;;;;6047808;23;20207;-87
2024/01/04 17:12:10;;;;;;;9.43;9.13;;;6.70;99.90;;;;;;6046621;23;20217;-88
2024/01/04 17:14:53;;;;;;;9.57;9.27;;;6.70;99.90;;;;;;6045034;23;20226;-87
2024/01/04 17:17:36;;;;;;;9.53;9.23;;;6.60;99.90;;;;;;6045330;23;20214;-88
2024/01/04 17:20:11;;;;;;;9.40;9.10;;;6.60;99.90;;;;;;6045383;23;20253;-87
2024/01/04 17:22:44;;;;;;;9.50;9.20;;;6.60;99.90;;;;;;6045164;23;20213;-88
2024/01/04 17:25:31;;;;;;;9.60;9.30;;;6.60;99.90;;;;;;6046790;23;20199;-87
2024/01/04 17:28:13;;;;;;;9.70;9.40;;;6.60;99.90;;;;;;6045815;23;20210;-88
2024/01/04 17:30:56;;;;;;;9.43;9.13;;;6.60;99.90;;;;;;6046237;23;20198;-88
2024/01/04 17:33:52;;;;;;;9.67;9.37;;;6.60;99.90;;;;;;6061494;23;20201;-88